Impacts TAF Board
For situational awareness. Not to be used for flight planning purposes.
IDs:

KABQ - Albuquerque Intl, NM, US

Issued at 2142 UTC 01 Feb 2023
Updated at 2324 UTC 01 Feb 2023
Potential Impact None Slight Moderate High
Time<<02/12Z 02/13Z 02/14Z 02/15Z 02/16Z 02/17Z 02/18Z 02/19Z 02/20Z 02/21Z 02/22Z 02/23Z 03/00Z>>
Type PRVL PRVL PRVL PRVL PRVL PRVL
VIS >6 >6 >6 >6 >6 >6
CIG -- -- -- -- -- --
Cover FEW FEW FEW FEW FEW FEW
FltCat VFR VFR VFR VFR VFR VFR
WX -- -- -- -- -- --
WDir 350 350 350 350 350 350
WSpd 8 8 8 8 8 8
WGst -- -- -- -- -- --
WSHgt -- -- -- -- -- --
WSDir -- -- -- -- -- --
WSSpd -- -- -- -- -- --
R03/21
XWnd 7 7 7 7 7 7 0 0 0 0 0 0 0
HWnd 5 5 5 5 5 5 0 0 0 0 0 0 0
R08/26
XWnd 8 8 8 8 8 8 0 0 0 0 0 0 0
HWnd -1 -1 -1 -1 -1 -1 0 0 0 0 0 0 0
R12/30
XWnd 5 5 5 5 5 5 0 0 0 0 0 0 0
HWnd -6 -6 -6 -6 -6 -6 0 0 0 0 0 0 0

NOTE: LAMP data beyond the time of the TAF data is denoted as LAMP in Type and colored magenta.

Raw TAF
KABQ 012142Z 0122/0218 35010G18KT P6SM FEW070
  FM020100 35008KT P6SM FEW250


METAR Board
Radar Display
Forecast Discussion

For situational awareness. Not to be used for flight planning purposes.